createdAt,value
2022-11-06T00:01:53.900Z,3.40
2022-11-06T00:04:21.634Z,3.40
2022-11-06T00:06:48.356Z,3.60
2022-11-06T00:09:18.687Z,3.60
2022-11-06T00:11:47.132Z,3.70
2022-11-06T00:14:15.559Z,3.60
2022-11-06T00:16:44.713Z,3.60
2022-11-06T00:19:14.333Z,3.60
2022-11-06T00:21:42.270Z,3.60
2022-11-06T00:24:12.241Z,3.70
2022-11-06T00:26:40.062Z,3.80
2022-11-06T00:29:08.515Z,3.70
2022-11-06T00:31:37.904Z,3.60
2022-11-06T00:34:07.526Z,3.60
2022-11-06T00:36:36.928Z,3.50
2022-11-06T00:39:05.175Z,3.40
2022-11-06T00:41:32.991Z,3.40
2022-11-06T00:44:02.575Z,3.30
2022-11-06T00:46:30.957Z,3.40
2022-11-06T00:48:59.092Z,3.40
2022-11-06T00:51:28.602Z,3.60
2022-11-06T00:53:58.951Z,3.70
2022-11-06T00:56:27.683Z,3.80
2022-11-06T00:58:56.190Z,3.90
2022-11-06T01:01:27.046Z,3.90
2022-11-06T01:03:56.459Z,3.80
2022-11-06T01:06:26.546Z,3.80
2022-11-06T01:08:54.589Z,3.70
2022-11-06T01:11:27.073Z,3.80
2022-11-06T01:13:56.828Z,3.90
2022-11-06T01:16:25.727Z,3.90
2022-11-06T01:18:55.010Z,4.00
2022-11-06T01:21:24.377Z,4.00
2022-11-06T01:23:54.887Z,4.00
2022-11-06T01:26:37.616Z,4.00
2022-11-06T01:29:07.840Z,4.00
2022-11-06T01:31:36.638Z,4.00
2022-11-06T01:34:05.420Z,4.00
2022-11-06T01:36:33.652Z,4.10
2022-11-06T01:39:03.735Z,4.10
2022-11-06T01:41:35.042Z,4.20
2022-11-06T01:44:09.431Z,4.20
2022-11-06T01:46:37.931Z,4.30
2022-11-06T01:49:08.094Z,4.30
2022-11-06T01:51:39.332Z,4.20
2022-11-06T01:54:09.387Z,4.20
2022-11-06T01:56:39.933Z,4.20
2022-11-06T01:59:10.592Z,4.20
2022-11-06T02:01:38.449Z,4.30
2022-11-06T02:04:10.891Z,4.30
2022-11-06T02:06:39.496Z,4.30
2022-11-06T02:09:11.325Z,4.30
2022-11-06T02:11:41.965Z,4.20
2022-11-06T02:14:15.497Z,4.20
2022-11-06T02:16:49.542Z,4.20
2022-11-06T02:19:31.445Z,4.20
2022-11-06T02:22:11.835Z,4.20
2022-11-06T02:24:54.964Z,4.20
2022-11-06T02:27:25.294Z,4.20
2022-11-06T02:29:59.683Z,4.20
2022-11-06T02:32:33.356Z,4.30
2022-11-06T02:35:05.919Z,4.40
2022-11-06T02:37:37.485Z,4.40
2022-11-06T02:40:08.972Z,4.50
2022-11-06T02:42:42.576Z,4.60
2022-11-06T02:45:13.586Z,4.60
2022-11-06T02:47:44.031Z,4.60
2022-11-06T02:50:15.457Z,4.60
2022-11-06T02:52:48.307Z,4.60
2022-11-06T02:55:20.859Z,4.70
2022-11-06T02:57:54.537Z,4.70
2022-11-06T03:00:23.793Z,4.70
2022-11-06T03:02:56.968Z,4.70
2022-11-06T03:05:29.497Z,4.80
2022-11-06T03:08:03.030Z,4.80
2022-11-06T03:10:35.373Z,4.80
2022-11-06T03:13:15.728Z,4.80
2022-11-06T03:15:49.577Z,4.90
2022-11-06T03:18:24.260Z,4.90
2022-11-06T03:20:59.835Z,4.90
2022-11-06T03:23:34.629Z,4.90
2022-11-06T03:26:13.491Z,4.90
2022-11-06T03:28:50.042Z,4.90
2022-11-06T03:31:21.790Z,4.80
2022-11-06T03:33:53.683Z,4.80
2022-11-06T03:36:25.365Z,4.80
2022-11-06T03:38:56.926Z,4.80
2022-11-06T03:41:31.664Z,4.70
2022-11-06T03:44:04.103Z,4.60
2022-11-06T03:46:34.012Z,4.60
2022-11-06T03:49:06.221Z,4.60
2022-11-06T03:51:38.721Z,4.60
2022-11-06T03:54:11.506Z,4.60
2022-11-06T03:56:42.795Z,4.50
2022-11-06T03:59:18.514Z,4.50
2022-11-06T04:01:49.194Z,4.50
2022-11-06T04:04:22.739Z,4.40
2022-11-06T04:06:54.717Z,4.50
2022-11-06T04:09:43.193Z,4.40
2022-11-06T04:12:33.792Z,4.40
2022-11-06T04:15:04.373Z,4.40
2022-11-06T04:17:33.237Z,4.40
2022-11-06T04:20:06.212Z,4.40
2022-11-06T04:22:45.389Z,4.40
2022-11-06T04:25:47.840Z,4.40
2022-11-06T04:28:28.480Z,4.40
2022-11-06T04:31:07.186Z,4.30
2022-11-06T04:33:44.083Z,4.30
2022-11-06T04:36:19.353Z,4.40
2022-11-06T04:38:54.076Z,4.50
2022-11-06T04:41:34.337Z,4.50
2022-11-06T04:44:08.329Z,4.50
2022-11-06T04:46:41.918Z,4.40
2022-11-06T04:49:10.762Z,4.50
2022-11-06T04:51:40.917Z,4.50
2022-11-06T04:54:11.381Z,4.40
2022-11-06T04:56:45.577Z,4.40
2022-11-06T04:59:16.516Z,4.40
2022-11-06T05:01:46.219Z,4.40
2022-11-06T05:04:14.113Z,4.40
2022-11-06T05:06:41.847Z,4.40
2022-11-06T05:09:09.642Z,4.30
2022-11-06T05:11:38.374Z,4.30
2022-11-06T05:14:06.335Z,4.30
2022-11-06T05:16:34.061Z,4.30
2022-11-06T05:19:03.098Z,4.40
2022-11-06T05:21:48.664Z,4.40
2022-11-06T05:24:16.391Z,4.30
2022-11-06T05:26:44.150Z,4.20
2022-11-06T05:29:12.894Z,4.20
2022-11-06T05:31:40.704Z,4.10
2022-11-06T05:34:09.817Z,4.10
2022-11-06T05:36:37.557Z,4.10
2022-11-06T05:39:05.339Z,4.10
2022-11-06T05:41:33.079Z,4.10
2022-11-06T05:44:00.805Z,4.10
2022-11-06T05:46:48.226Z,4.10
2022-11-06T05:49:17.634Z,4.10
2022-11-06T05:51:45.472Z,4.20
2022-11-06T05:54:13.740Z,4.10
2022-11-06T05:56:41.457Z,4.20
2022-11-06T05:59:09.190Z,4.20
2022-11-06T06:01:37.041Z,4.20
2022-11-06T06:04:05.002Z,4.20
2022-11-06T06:06:34.774Z,4.20
2022-11-06T06:09:02.511Z,4.30
2022-11-06T06:11:30.292Z,4.30
2022-11-06T06:13:58.012Z,4.30
2022-11-06T06:16:25.736Z,4.30
2022-11-06T06:18:53.439Z,4.30
2022-11-06T06:21:21.161Z,4.30
2022-11-06T06:23:50.239Z,4.30
2022-11-06T06:26:18.398Z,4.30
2022-11-06T06:28:48.959Z,4.30
2022-11-06T06:31:16.743Z,4.40
2022-11-06T06:33:44.468Z,4.40
2022-11-06T06:36:12.296Z,4.30
2022-11-06T06:38:40.030Z,4.40
2022-11-06T06:41:09.982Z,4.40
2022-11-06T06:43:37.745Z,4.50
2022-11-06T06:46:07.344Z,4.50
2022-11-06T06:48:35.769Z,4.60
2022-11-06T06:51:04.838Z,4.60
2022-11-06T06:53:33.055Z,4.60
2022-11-06T06:56:01.712Z,4.60
2022-11-06T06:58:31.623Z,4.70
2022-11-06T07:01:02.143Z,4.70
2022-11-06T07:03:30.658Z,4.80
2022-11-06T07:05:58.836Z,4.70
2022-11-06T07:08:27.275Z,4.80
2022-11-06T07:10:59.663Z,4.90
2022-11-06T07:13:32.816Z,4.90
2022-11-06T07:16:05.952Z,5.00
2022-11-06T07:18:33.929Z,5.00
2022-11-06T07:21:01.699Z,5.10
2022-11-06T07:23:29.427Z,5.10
2022-11-06T07:25:57.123Z,5.20
2022-11-06T07:28:24.839Z,5.30
2022-11-06T07:30:52.531Z,5.30
2022-11-06T07:33:21.552Z,5.40
2022-11-06T07:35:49.277Z,5.60
2022-11-06T07:38:17.154Z,5.70
2022-11-06T07:40:44.859Z,5.80
2022-11-06T07:43:13.714Z,5.90
2022-11-06T07:45:41.507Z,6.00
2022-11-06T07:48:09.195Z,6.20
2022-11-06T07:50:39.286Z,6.20
2022-11-06T07:53:06.996Z,6.30
2022-11-06T07:55:40.835Z,6.40
2022-11-06T07:58:09.827Z,6.60
2022-11-06T08:00:37.569Z,6.60
2022-11-06T08:03:05.299Z,6.80
2022-11-06T08:05:33.009Z,6.90
2022-11-06T08:08:02.201Z,7.00
2022-11-06T08:10:29.949Z,7.00
2022-11-06T08:12:59.998Z,7.10
2022-11-06T08:15:27.736Z,7.20
2022-11-06T08:17:55.445Z,7.30
2022-11-06T08:20:23.151Z,7.40
2022-11-06T08:22:50.849Z,7.50
2022-11-06T08:25:19.889Z,7.60
2022-11-06T08:27:47.582Z,7.60
2022-11-06T08:30:15.322Z,7.70
2022-11-06T08:32:43.037Z,7.80
2022-11-06T08:35:10.949Z,7.90
2022-11-06T08:37:38.621Z,7.90
2022-11-06T08:40:07.567Z,8.00
2022-11-06T08:42:36.606Z,8.00
2022-11-06T08:45:04.978Z,8.10
2022-11-06T08:47:32.674Z,8.20
2022-11-06T08:50:00.408Z,8.30
2022-11-06T08:52:33.754Z,8.40
2022-11-06T08:55:01.973Z,8.40
2022-11-06T08:57:29.654Z,8.60
2022-11-06T08:59:58.695Z,8.60
2022-11-06T09:02:26.706Z,8.70
2022-11-06T09:04:54.560Z,8.80
2022-11-06T09:07:22.259Z,8.90
2022-11-06T09:09:49.972Z,8.90
2022-11-06T09:12:17.647Z,9.00
2022-11-06T09:14:45.330Z,9.10
2022-11-06T09:17:14.432Z,9.20
2022-11-06T09:19:42.148Z,9.60
2022-11-06T09:22:10.170Z,11.90
2022-11-06T09:25:01.761Z,15.00
2022-11-06T09:27:25.604Z,16.10
2022-11-06T09:29:53.825Z,16.40
2022-11-06T09:32:23.993Z,16.60
2022-11-06T09:34:51.842Z,16.50
2022-11-06T09:37:19.539Z,16.10
2022-11-06T09:39:47.451Z,15.70
2022-11-06T09:42:23.935Z,16.00
2022-11-06T09:45:03.670Z,16.20
2022-11-06T09:47:38.222Z,16.30
2022-11-06T09:50:13.418Z,16.70
2022-11-06T09:52:45.401Z,16.80
2022-11-06T09:55:17.226Z,15.90
2022-11-06T09:57:49.577Z,15.30
2022-11-06T10:00:18.221Z,15.00
2022-11-06T10:02:51.218Z,14.80
2022-11-06T10:05:26.676Z,14.60
2022-11-06T10:07:57.863Z,14.90
2022-11-06T10:10:32.493Z,15.90
2022-11-06T10:13:24.239Z,17.30
2022-11-06T10:15:58.430Z,18.10
2022-11-06T10:18:39.195Z,18.20
2022-11-06T10:21:12.573Z,17.90
2022-11-06T10:23:49.606Z,16.70
2022-11-06T10:26:19.359Z,15.40
2022-11-06T10:29:06.266Z,14.40
2022-11-06T10:31:44.867Z,13.40
2022-11-06T10:34:16.874Z,12.60
2022-11-06T10:36:50.190Z,12.10
2022-11-06T10:39:23.151Z,12.00
2022-11-06T10:41:58.096Z,11.90
2022-11-06T10:44:30.338Z,11.90
2022-11-06T10:47:04.582Z,11.80
2022-11-06T10:49:39.220Z,11.90
2022-11-06T10:52:42.227Z,12.00
2022-11-06T10:55:47.975Z,12.10
2022-11-06T10:58:18.997Z,12.20
2022-11-06T11:00:46.930Z,12.40
2022-11-06T11:03:24.513Z,12.40
2022-11-06T11:05:55.167Z,12.30
2022-11-06T11:08:39.742Z,12.40
2022-11-06T11:11:16.975Z,12.50
2022-11-06T11:13:46.250Z,12.50
2022-11-06T11:16:16.829Z,12.60
2022-11-06T11:18:44.745Z,12.60
2022-11-06T11:21:24.558Z,12.70
2022-11-06T11:24:09.750Z,12.70
2022-11-06T11:26:40.699Z,12.70
2022-11-06T11:29:17.731Z,12.80
2022-11-06T11:31:50.769Z,12.90
2022-11-06T11:34:21.028Z,13.00
2022-11-06T11:36:53.055Z,13.00
2022-11-06T11:39:25.171Z,13.10
2022-11-06T11:41:52.869Z,13.10
2022-11-06T11:44:21.515Z,13.10
2022-11-06T11:46:51.298Z,13.20
2022-11-06T11:49:30.350Z,13.30
2022-11-06T11:52:01.807Z,13.30
2022-11-06T11:54:32.610Z,13.30
2022-11-06T11:57:05.124Z,13.30
2022-11-06T11:59:38.099Z,13.30
2022-11-06T12:02:15.631Z,13.30
2022-11-06T12:04:48.495Z,13.30
2022-11-06T12:07:26.515Z,13.40
2022-11-06T12:09:54.545Z,13.50
2022-11-06T12:12:24.966Z,13.50
2022-11-06T12:15:07.115Z,13.50
2022-11-06T12:17:37.421Z,13.50
2022-11-06T12:20:12.206Z,13.50
2022-11-06T12:22:44.933Z,13.60
2022-11-06T12:25:17.839Z,13.60
2022-11-06T12:27:48.126Z,13.60
2022-11-06T12:30:17.613Z,13.50
2022-11-06T12:33:04.802Z,13.50
2022-11-06T12:35:34.013Z,13.50
2022-11-06T12:38:17.124Z,13.40
2022-11-06T12:40:51.861Z,13.60
2022-11-06T12:43:24.463Z,13.70
2022-11-06T12:46:16.463Z,13.70
2022-11-06T12:49:02.286Z,13.70
2022-11-06T12:51:39.653Z,13.70
2022-11-06T12:54:29.660Z,13.70
2022-11-06T12:57:07.136Z,13.70
2022-11-06T12:59:50.286Z,13.70
2022-11-06T13:02:30.844Z,13.70
2022-11-06T13:05:06.645Z,13.70
2022-11-06T13:08:09.581Z,13.70
2022-11-06T13:10:47.007Z,13.60
2022-11-06T13:13:29.344Z,13.60
2022-11-06T13:16:04.618Z,13.60
2022-11-06T13:18:36.598Z,13.50
2022-11-06T13:21:12.082Z,13.50
2022-11-06T13:23:44.110Z,13.40
2022-11-06T13:26:20.714Z,13.30
2022-11-06T13:28:50.938Z,13.10
2022-11-06T13:31:21.868Z,13.00
2022-11-06T13:33:53.316Z,12.90
2022-11-06T13:36:21.715Z,12.90
2022-11-06T13:38:55.035Z,12.80
2022-11-06T13:41:27.653Z,12.80
2022-11-06T13:44:00.227Z,12.80
2022-11-06T13:46:36.986Z,12.80
2022-11-06T13:49:20.002Z,12.70
2022-11-06T13:51:54.822Z,12.70
2022-11-06T13:54:35.223Z,12.60
2022-11-06T13:57:47.554Z,12.60
2022-11-06T14:00:21.908Z,12.50
2022-11-06T14:03:21.037Z,12.50
2022-11-06T14:05:56.428Z,12.40
2022-11-06T14:08:28.898Z,12.30
2022-11-06T14:11:00.920Z,12.30
2022-11-06T14:13:34.202Z,12.30
2022-11-06T14:16:26.440Z,12.20
2022-11-06T14:19:04.910Z,12.10
2022-11-06T14:21:51.571Z,12.10
2022-11-06T14:24:40.919Z,12.10
2022-11-06T14:27:14.163Z,12.10
2022-11-06T14:30:02.205Z,12.00
2022-11-06T14:32:46.305Z,12.00
2022-11-06T14:35:59.074Z,11.90
2022-11-06T14:38:36.113Z,11.80
2022-11-06T14:41:27.786Z,11.90
2022-11-06T14:43:57.800Z,11.80
2022-11-06T14:46:26.952Z,11.80
2022-11-06T14:48:57.660Z,11.70
2022-11-06T14:51:28.731Z,11.70
2022-11-06T14:53:58.979Z,11.60
2022-11-06T14:56:28.627Z,11.50
2022-11-06T14:58:58.578Z,11.50
2022-11-06T15:01:30.474Z,11.50
2022-11-06T15:04:02.954Z,11.40
2022-11-06T15:06:43.593Z,11.30
2022-11-06T15:09:14.516Z,11.20
2022-11-06T15:12:00.815Z,11.10
2022-11-06T15:14:57.803Z,11.00
2022-11-06T15:17:29.692Z,10.80
2022-11-06T15:20:20.624Z,10.50
2022-11-06T15:22:55.336Z,10.20
2022-11-06T15:25:25.143Z,10.10
2022-11-06T15:27:58.863Z,9.90
2022-11-06T15:30:29.137Z,9.80
2022-11-06T15:33:02.787Z,9.70
2022-11-06T15:35:35.847Z,9.70
2022-11-06T15:38:09.517Z,9.60
2022-11-06T15:40:39.507Z,9.50
2022-11-06T15:43:15.570Z,9.30
2022-11-06T15:45:43.679Z,9.20
2022-11-06T15:48:20.583Z,9.10
2022-11-06T15:50:48.389Z,9.00
2022-11-06T15:53:21.763Z,8.90
2022-11-06T15:55:54.376Z,8.80
2022-11-06T15:58:31.550Z,8.60
2022-11-06T16:01:00.275Z,8.50
2022-11-06T16:03:32.028Z,8.30
2022-11-06T16:06:02.749Z,8.30
2022-11-06T16:08:32.242Z,8.30
2022-11-06T16:11:01.009Z,8.20
2022-11-06T16:13:29.491Z,8.10
2022-11-06T16:16:00.413Z,8.00
2022-11-06T16:18:32.824Z,7.90
2022-11-06T16:21:08.777Z,7.70
2022-11-06T16:23:40.080Z,7.60
2022-11-06T16:26:10.631Z,7.50
2022-11-06T16:28:44.152Z,7.60
2022-11-06T16:31:16.002Z,7.60
2022-11-06T16:33:56.063Z,7.60
2022-11-06T16:36:24.189Z,7.60
2022-11-06T16:38:52.767Z,7.60
2022-11-06T16:41:39.534Z,7.60
2022-11-06T16:44:31.305Z,7.60
2022-11-06T16:47:14.513Z,7.60
2022-11-06T16:49:47.743Z,7.60
2022-11-06T16:52:24.562Z,7.60
2022-11-06T16:54:54.831Z,7.60
2022-11-06T16:57:25.422Z,7.70
2022-11-06T16:59:59.509Z,7.80
2022-11-06T17:02:30.846Z,7.80
2022-11-06T17:05:14.443Z,7.70
2022-11-06T17:07:42.974Z,7.60
2022-11-06T17:10:36.209Z,7.60
2022-11-06T17:13:13.635Z,7.60
2022-11-06T17:15:42.091Z,7.60
2022-11-06T17:18:16.894Z,7.50
2022-11-06T17:20:51.593Z,7.60
2022-11-06T17:23:19.953Z,7.60
2022-11-06T17:25:48.729Z,7.60
2022-11-06T17:28:18.861Z,7.70
2022-11-06T17:30:48.180Z,7.60
2022-11-06T17:33:16.629Z,7.60
2022-11-06T17:35:44.762Z,7.60
2022-11-06T17:38:15.409Z,7.60
2022-11-06T17:40:43.745Z,7.60
2022-11-06T17:43:12.599Z,7.60
2022-11-06T17:45:42.535Z,7.60
2022-11-06T17:48:10.354Z,7.70
2022-11-06T17:50:52.078Z,7.80
2022-11-06T17:53:21.147Z,7.90
2022-11-06T17:55:48.939Z,7.90
2022-11-06T17:58:17.045Z,8.00
2022-11-06T18:00:45.252Z,7.90
2022-11-06T18:03:19.010Z,7.90
2022-11-06T18:05:47.040Z,7.90
2022-11-06T18:08:16.151Z,7.80
2022-11-06T18:10:45.529Z,7.70
2022-11-06T18:13:13.326Z,7.70
2022-11-06T18:15:41.509Z,7.60
2022-11-06T18:18:09.270Z,7.50
2022-11-06T18:20:36.979Z,7.40
2022-11-06T18:23:04.744Z,7.40
2022-11-06T18:25:32.519Z,7.30
2022-11-06T18:28:03.844Z,7.30
2022-11-06T18:30:31.825Z,7.20
2022-11-06T18:33:00.103Z,7.20
2022-11-06T18:35:27.858Z,7.10
2022-11-06T18:37:55.627Z,7.10
2022-11-06T18:40:23.363Z,7.00
2022-11-06T18:42:54.088Z,7.00
2022-11-06T18:45:23.195Z,7.00
2022-11-06T18:47:50.943Z,6.90
2022-11-06T18:50:18.800Z,7.00
2022-11-06T18:52:57.433Z,6.90
2022-11-06T18:55:26.113Z,6.90
2022-11-06T18:57:54.795Z,7.00
2022-11-06T19:00:24.391Z,7.00
2022-11-06T19:02:52.414Z,7.00
2022-11-06T19:05:20.328Z,6.90
2022-11-06T19:07:52.765Z,6.90
2022-11-06T19:10:22.990Z,6.80
2022-11-06T19:12:50.822Z,6.80
2022-11-06T19:15:18.677Z,6.70
2022-11-06T19:17:47.727Z,6.70
2022-11-06T19:20:15.665Z,6.70
2022-11-06T19:22:43.479Z,6.70
2022-11-06T19:25:11.243Z,6.70
2022-11-06T19:27:39.014Z,6.70
2022-11-06T19:30:08.204Z,6.70
2022-11-06T19:32:35.983Z,6.70
2022-11-06T19:35:05.696Z,6.70
2022-11-06T19:37:33.521Z,6.60
2022-11-06T19:40:06.096Z,6.60
2022-11-06T19:42:34.641Z,6.60
2022-11-06T19:45:02.422Z,6.60
2022-11-06T19:47:32.324Z,6.60
2022-11-06T19:50:00.229Z,6.60
2022-11-06T19:52:42.327Z,6.50
2022-11-06T19:55:25.732Z,6.50
2022-11-06T19:57:55.012Z,6.60
2022-11-06T20:00:22.905Z,6.50
2022-11-06T20:02:51.154Z,6.50
2022-11-06T20:05:19.239Z,6.60
2022-11-06T20:07:48.398Z,6.60
2022-11-06T20:10:16.610Z,6.70
2022-11-06T20:12:44.372Z,6.70
2022-11-06T20:15:12.300Z,6.60
2022-11-06T20:17:40.109Z,6.60
2022-11-06T20:20:09.176Z,6.60
2022-11-06T20:22:37.016Z,6.60
2022-11-06T20:25:06.800Z,6.60
2022-11-06T20:27:34.532Z,6.60
2022-11-06T20:30:02.894Z,6.70
2022-11-06T20:32:30.628Z,6.70
2022-11-06T20:34:58.361Z,6.70
2022-11-06T20:37:26.635Z,6.70
2022-11-06T20:39:54.352Z,6.60
2022-11-06T20:42:23.375Z,6.70
2022-11-06T20:44:51.141Z,6.60
2022-11-06T20:47:19.079Z,6.60
2022-11-06T20:49:46.898Z,6.60
2022-11-06T20:52:15.451Z,6.60
2022-11-06T20:54:47.293Z,6.50
2022-11-06T20:57:15.982Z,6.50
2022-11-06T20:59:47.378Z,6.50
2022-11-06T21:02:15.228Z,6.50
2022-11-06T21:04:43.251Z,6.50
2022-11-06T21:07:11.037Z,6.50
2022-11-06T21:09:38.765Z,6.50
2022-11-06T21:12:07.288Z,6.50
2022-11-06T21:14:35.174Z,6.60
2022-11-06T21:17:04.432Z,6.50
2022-11-06T21:19:33.206Z,6.50
2022-11-06T21:22:00.911Z,6.50
2022-11-06T21:24:28.712Z,6.50
2022-11-06T21:26:56.475Z,6.60
2022-11-06T21:29:25.628Z,6.60
2022-11-06T21:31:54.538Z,6.70
2022-11-06T21:34:23.631Z,6.70
2022-11-06T21:36:51.491Z,6.70
2022-11-06T21:39:20.640Z,6.60
2022-11-06T21:41:48.532Z,6.70
2022-11-06T21:44:18.401Z,6.80
2022-11-06T21:46:46.516Z,6.80
2022-11-06T21:49:15.695Z,6.70
2022-11-06T21:51:44.729Z,6.80
2022-11-06T21:54:30.763Z,6.80
2022-11-06T21:56:58.475Z,6.80
2022-11-06T21:59:27.872Z,6.80
2022-11-06T22:01:55.889Z,6.80
2022-11-06T22:04:23.883Z,6.80
2022-11-06T22:06:54.786Z,6.70
2022-11-06T22:09:25.620Z,6.70
2022-11-06T22:11:53.866Z,6.60
2022-11-06T22:14:21.578Z,6.70
2022-11-06T22:16:49.801Z,6.70
2022-11-06T22:19:18.516Z,6.70
2022-11-06T22:21:46.434Z,6.80
2022-11-06T22:24:16.588Z,6.70
2022-11-06T22:26:44.372Z,6.80
2022-11-06T22:29:13.898Z,6.70
2022-11-06T22:31:41.994Z,6.70
2022-11-06T22:34:10.688Z,6.70
2022-11-06T22:36:38.764Z,6.70
2022-11-06T22:39:08.794Z,6.80
2022-11-06T22:41:38.703Z,6.70
2022-11-06T22:44:07.331Z,6.80
2022-11-06T22:46:35.348Z,6.80
2022-11-06T22:49:04.232Z,6.80
2022-11-06T22:51:33.192Z,6.70
2022-11-06T22:54:02.437Z,6.80
2022-11-06T22:56:31.946Z,6.80
2022-11-06T22:59:03.230Z,6.80
2022-11-06T23:01:34.970Z,6.80
2022-11-06T23:04:08.244Z,6.80
2022-11-06T23:06:36.697Z,6.80
2022-11-06T23:09:04.630Z,6.80
2022-11-06T23:11:32.538Z,6.80
2022-11-06T23:14:07.464Z,6.90
2022-11-06T23:16:53.669Z,6.90
2022-11-06T23:19:21.625Z,6.90
2022-11-06T23:21:49.451Z,7.00
2022-11-06T23:24:17.260Z,7.00
2022-11-06T23:26:45.412Z,7.00
2022-11-06T23:29:14.449Z,6.90
2022-11-06T23:31:42.153Z,6.90
2022-11-06T23:34:09.931Z,6.90
2022-11-06T23:36:37.619Z,6.90
2022-11-06T23:39:05.369Z,6.80
2022-11-06T23:41:52.788Z,6.90
2022-11-06T23:44:39.593Z,6.90
2022-11-06T23:47:07.280Z,6.90
2022-11-06T23:49:35.015Z,6.90
2022-11-06T23:52:02.758Z,6.90
2022-11-06T23:54:30.483Z,6.90
2022-11-06T23:56:58.177Z,6.90
2022-11-06T23:59:27.205Z,6.90
